createdAt,value
2016-10-04T03:00:42.611Z,19.51
2016-10-04T03:01:08.166Z,19.5
2016-10-04T03:01:33.862Z,19.55
2016-10-04T03:01:59.437Z,19.48
2016-10-04T03:02:24.990Z,19.46
2016-10-04T03:02:51.564Z,19.47
2016-10-04T03:03:17.121Z,19.53
2016-10-04T03:03:42.682Z,19.5
2016-10-04T03:04:08.303Z,19.47
2016-10-04T03:04:33.893Z,19.48
2016-10-04T03:04:59.452Z,19.51
2016-10-04T03:05:25.021Z,19.46
2016-10-04T03:05:50.586Z,19.53
2016-10-04T03:06:16.145Z,19.48
2016-10-04T03:06:41.798Z,19.53
2016-10-04T03:07:07.365Z,19.51
2016-10-04T03:07:32.924Z,19.53
2016-10-04T03:07:58.498Z,19.53
2016-10-04T03:08:24.046Z,19.5
2016-10-04T03:08:49.632Z,19.53
2016-10-04T03:09:15.200Z,19.53
2016-10-04T03:09:40.756Z,19.5
2016-10-04T03:10:06.374Z,19.54
2016-10-04T03:10:31.986Z,19.51
2016-10-04T03:10:57.565Z,19.48
2016-10-04T03:11:23.194Z,19.46
2016-10-04T03:11:48.786Z,19.53
2016-10-04T03:12:14.456Z,19.48
2016-10-04T03:12:40.035Z,19.48
2016-10-04T03:13:05.831Z,19.47
2016-10-04T03:13:31.381Z,19.47
2016-10-04T03:13:56.946Z,19.47
2016-10-04T03:14:22.512Z,19.53
2016-10-04T03:14:48.085Z,19.53
2016-10-04T03:15:13.633Z,19.51
2016-10-04T03:15:39.192Z,19.51
2016-10-04T03:16:04.752Z,19.47
2016-10-04T03:16:30.324Z,19.53
2016-10-04T03:16:55.887Z,19.51
2016-10-04T03:17:21.449Z,19.54
2016-10-04T03:17:46.994Z,19.54
2016-10-04T03:18:12.572Z,19.53
2016-10-04T03:18:38.153Z,19.51
2016-10-04T03:19:03.712Z,19.48
2016-10-04T03:19:29.410Z,19.46
2016-10-04T03:20:37.718Z,19.48
2016-10-04T03:21:40.944Z,19.51
2016-10-04T03:22:28.819Z,19.47
2016-10-04T03:22:54.334Z,19.48
2016-10-04T03:23:19.919Z,19.5
2016-10-04T03:23:45.491Z,19.51
2016-10-04T03:24:11.136Z,19.46
2016-10-04T03:25:04.335Z,19.48
2016-10-04T03:25:29.901Z,19.5
2016-10-04T03:25:55.575Z,19.53
2016-10-04T03:26:21.127Z,19.6
2016-10-04T03:26:46.713Z,19.48
2016-10-04T03:27:12.365Z,19.51
2016-10-04T03:27:38.003Z,19.48
2016-10-04T03:28:03.596Z,19.46
2016-10-04T03:28:29.151Z,19.54
2016-10-04T03:28:54.771Z,19.48
2016-10-04T03:29:20.330Z,19.5
2016-10-04T03:29:45.889Z,19.5
2016-10-04T03:30:11.472Z,19.46
2016-10-04T03:30:37.016Z,19.48
2016-10-04T03:31:02.592Z,19.5
2016-10-04T03:31:28.126Z,19.48
2016-10-04T03:31:53.711Z,19.5
2016-10-04T03:32:19.261Z,19.54
2016-10-04T03:32:44.809Z,19.48
2016-10-04T03:33:10.395Z,19.48
2016-10-04T03:33:36.082Z,19.47
2016-10-04T03:34:01.741Z,19.53
2016-10-04T03:34:27.304Z,19.47
2016-10-04T03:34:52.980Z,19.48
2016-10-04T03:35:18.613Z,19.5
2016-10-04T03:35:44.181Z,19.46
2016-10-04T03:36:09.741Z,19.48
2016-10-04T03:36:35.378Z,19.5
2016-10-04T03:37:00.934Z,19.5
2016-10-04T03:37:26.480Z,19.47
2016-10-04T03:37:52.040Z,19.46
2016-10-04T03:38:17.600Z,19.48
2016-10-04T03:38:43.160Z,19.5
2016-10-04T03:39:08.730Z,19.48
2016-10-04T03:39:34.299Z,19.47
2016-10-04T03:39:59.854Z,19.42
2016-10-04T03:40:25.422Z,19.48
2016-10-04T03:40:50.978Z,19.43
2016-10-04T03:41:16.528Z,19.46
2016-10-04T03:41:42.115Z,19.5
2016-10-04T03:42:07.671Z,19.5
2016-10-04T03:42:33.315Z,19.46
2016-10-04T03:42:58.865Z,19.43
2016-10-04T03:43:24.439Z,19.53
2016-10-04T03:43:49.984Z,19.43
2016-10-04T03:44:15.547Z,19.47
2016-10-04T03:44:41.136Z,19.46
2016-10-04T03:45:06.704Z,19.53
2016-10-04T03:45:32.260Z,19.48
2016-10-04T03:45:57.824Z,19.48
2016-10-04T03:46:23.403Z,19.5
2016-10-04T03:46:48.975Z,19.46
2016-10-04T03:47:14.531Z,19.5
2016-10-04T03:47:40.122Z,19.46
2016-10-04T03:48:05.684Z,19.46
2016-10-04T03:48:31.284Z,19.48
2016-10-04T03:48:56.858Z,19.46
2016-10-04T03:49:22.444Z,19.43
2016-10-04T03:49:48.007Z,19.47
2016-10-04T03:50:13.605Z,19.47
2016-10-04T03:50:39.188Z,19.5
2016-10-04T03:51:04.756Z,19.46
2016-10-04T03:51:30.353Z,19.5
2016-10-04T03:51:55.916Z,19.43
2016-10-04T03:52:21.528Z,19.46
2016-10-04T03:52:47.198Z,19.4
2016-10-04T03:53:12.811Z,19.51
2016-10-04T03:53:38.402Z,19.46
2016-10-04T03:54:03.992Z,19.47
2016-10-04T03:54:29.644Z,19.51
2016-10-04T03:54:55.211Z,19.43
2016-10-04T03:55:20.799Z,19.51
2016-10-04T03:55:46.560Z,19.5
2016-10-04T03:56:12.131Z,19.42
2016-10-04T03:56:37.705Z,19.5
2016-10-04T03:57:03.308Z,19.43
2016-10-04T03:57:28.871Z,19.42
2016-10-04T03:57:54.425Z,19.46
2016-10-04T03:58:19.980Z,19.46
2016-10-04T03:58:45.590Z,19.43
2016-10-04T03:59:11.158Z,19.43
2016-10-04T03:59:36.705Z,19.42
2016-10-04T04:00:02.261Z,19.38
2016-10-04T04:00:27.817Z,19.42
2016-10-04T04:00:53.483Z,19.46
2016-10-04T04:01:19.042Z,19.42
2016-10-04T04:01:44.613Z,19.43
2016-10-04T04:02:10.171Z,19.43
2016-10-04T04:02:35.751Z,19.47
2016-10-04T04:03:01.315Z,19.38
2016-10-04T04:03:26.872Z,19.51
2016-10-04T04:03:52.437Z,19.48
2016-10-04T04:04:17.991Z,19.5
2016-10-04T04:04:43.615Z,19.43
2016-10-04T04:05:09.185Z,19.5
2016-10-04T04:05:34.748Z,19.5
2016-10-04T04:06:00.303Z,19.46
2016-10-04T04:06:25.893Z,19.4
2016-10-04T04:06:51.458Z,19.5
2016-10-04T04:07:17.039Z,19.33
2016-10-04T04:07:42.599Z,19.51
2016-10-04T04:08:08.197Z,19.48
2016-10-04T04:08:33.778Z,19.47
2016-10-04T04:08:59.348Z,19.42
2016-10-04T04:09:24.934Z,19.48
2016-10-04T04:09:50.489Z,19.47
2016-10-04T04:10:16.054Z,19.43
2016-10-04T04:10:41.631Z,19.47
2016-10-04T04:11:07.192Z,19.36
2016-10-04T04:11:32.742Z,19.47
2016-10-04T04:11:58.301Z,19.46
2016-10-04T04:12:23.859Z,19.42
2016-10-04T04:12:49.413Z,19.47
2016-10-04T04:13:14.982Z,19.48
2016-10-04T04:13:40.542Z,19.48
2016-10-04T04:14:06.121Z,19.4
2016-10-04T04:14:31.691Z,19.47
2016-10-04T04:14:57.262Z,19.46
2016-10-04T04:15:22.962Z,19.51
2016-10-04T04:15:48.531Z,19.46
2016-10-04T04:16:14.096Z,19.43
2016-10-04T04:16:39.685Z,19.39
2016-10-04T04:17:05.242Z,19.48
2016-10-04T04:17:30.799Z,19.43
2016-10-04T04:17:56.336Z,19.38
2016-10-04T04:18:21.944Z,19.39
2016-10-04T04:18:47.512Z,19.46
2016-10-04T04:19:13.121Z,19.4
2016-10-04T04:19:38.716Z,19.51
2016-10-04T04:20:04.274Z,19.51
2016-10-04T04:20:29.851Z,19.42
2016-10-04T04:20:55.421Z,19.38
2016-10-04T04:21:21.003Z,19.39
2016-10-04T04:21:46.543Z,19.39
2016-10-04T04:22:12.122Z,19.53
2016-10-04T04:22:37.677Z,19.38
2016-10-04T04:23:03.241Z,19.36
2016-10-04T04:23:28.842Z,19.42
2016-10-04T04:23:54.414Z,19.39
2016-10-04T04:24:19.990Z,19.47
2016-10-04T04:24:45.539Z,19.38
2016-10-04T04:25:11.090Z,19.43
2016-10-04T04:25:36.646Z,19.39
2016-10-04T04:26:02.207Z,19.4
2016-10-04T04:26:27.868Z,19.38
2016-10-04T04:26:53.433Z,19.42
2016-10-04T04:27:19.002Z,19.4
2016-10-04T04:27:44.569Z,19.48
2016-10-04T04:28:10.123Z,19.43
2016-10-04T04:28:35.753Z,19.42
2016-10-04T04:29:01.329Z,19.42
2016-10-04T04:29:26.882Z,19.47
2016-10-04T04:29:52.448Z,19.42
2016-10-04T04:30:18.003Z,19.42
2016-10-04T04:30:43.594Z,19.53
2016-10-04T04:31:09.192Z,19.39
2016-10-04T04:31:34.829Z,19.48
2016-10-04T04:32:00.407Z,19.55
2016-10-04T04:32:26.024Z,19.48
2016-10-04T04:32:51.598Z,19.47
2016-10-04T04:33:17.229Z,19.4
2016-10-04T04:33:42.810Z,19.38
2016-10-04T04:34:08.373Z,19.54
2016-10-04T04:34:34.006Z,19.48
2016-10-04T04:34:59.571Z,19.42
2016-10-04T04:35:25.133Z,19.53
2016-10-04T04:35:50.714Z,19.51
2016-10-04T04:36:16.403Z,19.33
2016-10-04T04:36:42.042Z,19.46
2016-10-04T04:37:07.602Z,19.48
2016-10-04T04:37:33.184Z,19.43
2016-10-04T04:37:58.741Z,19.42
2016-10-04T04:38:24.289Z,19.35
2016-10-04T04:38:49.859Z,19.47
2016-10-04T04:39:15.423Z,19.55
2016-10-04T04:39:40.994Z,19.4
2016-10-04T04:40:06.563Z,19.39
2016-10-04T04:40:32.145Z,19.38
2016-10-04T04:40:57.838Z,19.42
2016-10-04T04:41:23.376Z,19.42
2016-10-04T04:41:48.943Z,19.35
2016-10-04T04:42:14.514Z,19.48
2016-10-04T04:42:40.241Z,19.42
2016-10-04T04:43:05.792Z,19.46
2016-10-04T04:43:31.348Z,19.48
2016-10-04T04:43:56.929Z,19.48
2016-10-04T04:44:22.491Z,19.4
2016-10-04T04:44:48.162Z,19.38
2016-10-04T04:45:13.729Z,19.46
2016-10-04T04:45:39.460Z,19.46
2016-10-04T04:46:05.068Z,19.38
2016-10-04T04:46:30.638Z,19.47
2016-10-04T04:46:56.206Z,19.48
2016-10-04T04:47:21.759Z,19.5
2016-10-04T04:47:47.325Z,19.42
2016-10-04T04:48:12.886Z,19.46
2016-10-04T04:48:38.455Z,19.42
2016-10-04T04:49:04.015Z,19.42
2016-10-04T04:49:29.621Z,19.39
2016-10-04T04:49:55.305Z,19.46
2016-10-04T04:50:20.875Z,19.38
2016-10-04T04:50:46.430Z,19.4
2016-10-04T04:51:11.984Z,19.46
2016-10-04T04:51:37.539Z,19.4
2016-10-04T04:52:03.114Z,19.38
2016-10-04T04:52:28.670Z,19.53
2016-10-04T04:52:54.222Z,19.5
2016-10-04T04:53:19.793Z,19.46
2016-10-04T04:53:45.358Z,19.57
2016-10-04T04:54:10.940Z,19.38
2016-10-04T04:54:36.552Z,19.39
2016-10-04T04:55:02.124Z,19.4
2016-10-04T04:55:27.713Z,19.42
2016-10-04T04:56:20.745Z,19.48
2016-10-04T04:56:46.392Z,19.43
2016-10-04T04:57:49.592Z,19.42
2016-10-04T04:58:15.256Z,19.38
2016-10-04T04:58:40.825Z,19.33
2016-10-04T04:59:06.379Z,19.48
2016-10-04T04:59:31.984Z,19.43
2016-10-04T04:59:57.514Z,19.42
2016-10-04T05:00:23.079Z,19.38
2016-10-04T05:00:48.679Z,19.42
2016-10-04T05:01:14.228Z,19.36
2016-10-04T05:01:39.776Z,19.39
2016-10-04T05:02:05.420Z,19.46
2016-10-04T05:02:30.967Z,19.46
2016-10-04T05:02:56.531Z,19.43
2016-10-04T05:03:22.086Z,19.36
2016-10-04T05:03:47.640Z,19.36
2016-10-04T05:04:13.290Z,19.46
2016-10-04T05:04:38.849Z,19.4
2016-10-04T05:05:04.428Z,19.42
2016-10-04T05:05:29.991Z,19.47
2016-10-04T05:05:55.621Z,19.42
2016-10-04T05:06:21.176Z,19.35
2016-10-04T05:06:46.730Z,19.48
2016-10-04T05:07:12.270Z,19.35
2016-10-04T05:07:37.826Z,19.43
2016-10-04T05:08:03.439Z,19.43
2016-10-04T05:08:28.995Z,19.4
2016-10-04T05:08:54.573Z,19.47
2016-10-04T05:09:20.176Z,19.51
2016-10-04T05:09:45.889Z,19.43
2016-10-04T05:10:11.447Z,19.51
2016-10-04T05:10:37.002Z,19.42
2016-10-04T05:11:02.544Z,19.39
2016-10-04T05:11:28.087Z,19.46
2016-10-04T05:11:53.629Z,19.39
2016-10-04T05:12:19.176Z,19.36
2016-10-04T05:12:44.702Z,19.42
2016-10-04T05:13:10.256Z,19.4
2016-10-04T05:13:35.955Z,19.4
2016-10-04T05:14:01.449Z,19.43
2016-10-04T05:14:26.989Z,19.38
2016-10-04T05:14:52.530Z,19.42
2016-10-04T05:15:50.642Z,19.43
2016-10-04T05:16:48.716Z,19.38
2016-10-04T05:17:14.252Z,19.43
2016-10-04T05:17:39.829Z,19.33
2016-10-04T05:18:05.392Z,19.42
2016-10-04T05:18:30.959Z,19.42
2016-10-04T05:18:56.522Z,19.42
2016-10-04T05:19:22.072Z,19.43
2016-10-04T05:19:47.619Z,19.38
2016-10-04T05:20:13.177Z,19.4
2016-10-04T05:20:38.742Z,19.43
2016-10-04T05:21:04.340Z,19.36
2016-10-04T05:21:29.894Z,19.4
2016-10-04T05:21:55.461Z,19.4
2016-10-04T05:22:21.114Z,19.4
2016-10-04T05:22:46.671Z,19.48
2016-10-04T05:23:12.223Z,19.48
2016-10-04T05:23:37.782Z,19.4
2016-10-04T05:24:03.342Z,19.43
2016-10-04T05:24:28.910Z,19.35
2016-10-04T05:24:54.522Z,19.4
2016-10-04T05:25:20.080Z,19.31
2016-10-04T05:25:45.657Z,19.43
2016-10-04T05:26:11.212Z,19.35
2016-10-04T05:26:36.781Z,19.35
2016-10-04T05:27:02.358Z,19.4
2016-10-04T05:27:27.937Z,19.36
2016-10-04T05:27:53.500Z,19.38
2016-10-04T05:28:19.060Z,19.47
2016-10-04T05:28:44.681Z,19.4
2016-10-04T05:29:10.237Z,19.43
2016-10-04T05:29:35.801Z,19.36
2016-10-04T05:30:01.503Z,19.4
2016-10-04T05:30:27.062Z,19.39
2016-10-04T05:30:52.620Z,19.35
2016-10-04T05:31:18.302Z,19.32
2016-10-04T05:31:43.872Z,19.42
2016-10-04T05:32:09.435Z,19.39
2016-10-04T05:32:34.997Z,19.33
2016-10-04T05:33:00.578Z,19.39
2016-10-04T05:33:26.138Z,19.46
2016-10-04T05:33:51.779Z,19.39
2016-10-04T05:34:17.329Z,19.42
2016-10-04T05:34:42.886Z,19.46
2016-10-04T05:35:08.445Z,19.4
2016-10-04T05:35:34.009Z,19.4
2016-10-04T05:35:59.573Z,19.39
2016-10-04T05:36:25.306Z,19.4
2016-10-04T05:36:50.877Z,19.43
2016-10-04T05:37:16.453Z,19.4
2016-10-04T05:37:41.988Z,19.39
2016-10-04T05:38:07.539Z,19.33
2016-10-04T05:38:33.104Z,19.36
2016-10-04T05:38:58.687Z,19.4
2016-10-04T05:39:24.327Z,19.36
2016-10-04T05:39:49.882Z,19.35
2016-10-04T05:40:15.461Z,19.39
2016-10-04T05:40:41.030Z,19.32
2016-10-04T05:41:06.594Z,19.35
2016-10-04T05:41:32.203Z,19.33
2016-10-04T05:41:57.856Z,19.33
2016-10-04T05:42:23.441Z,19.4
2016-10-04T05:42:49.080Z,19.35
2016-10-04T05:43:14.640Z,19.36
2016-10-04T05:43:40.219Z,19.42
2016-10-04T05:44:05.860Z,19.35
2016-10-04T05:44:31.477Z,19.38
2016-10-04T05:44:57.043Z,19.38
2016-10-04T05:45:22.607Z,19.35
2016-10-04T05:45:48.236Z,19.38
2016-10-04T05:46:13.829Z,19.38
2016-10-04T05:46:39.378Z,19.4
2016-10-04T05:47:04.935Z,19.33
2016-10-04T05:47:30.505Z,19.35
2016-10-04T05:47:56.071Z,19.39
2016-10-04T05:48:21.625Z,19.4
2016-10-04T05:48:47.181Z,19.38
2016-10-04T05:49:12.756Z,19.39
2016-10-04T05:49:38.440Z,19.38
2016-10-04T05:50:04.074Z,19.39
2016-10-04T05:50:29.644Z,19.39
2016-10-04T05:50:55.330Z,19.4
2016-10-04T05:51:20.968Z,19.4
2016-10-04T05:51:46.461Z,19.35
2016-10-04T05:52:12.019Z,19.39
2016-10-04T05:52:37.575Z,19.38
2016-10-04T05:53:03.140Z,19.33
2016-10-04T05:53:28.702Z,19.38
2016-10-04T05:53:54.260Z,19.4
2016-10-04T05:54:19.831Z,19.4
2016-10-04T05:54:45.467Z,19.32
2016-10-04T05:55:11.046Z,19.38
2016-10-04T05:55:36.606Z,19.32
2016-10-04T05:56:02.736Z,19.4
2016-10-04T05:56:28.308Z,19.38
2016-10-04T05:56:53.877Z,19.4
2016-10-04T05:57:19.497Z,19.36
2016-10-04T05:57:45.083Z,19.43
2016-10-04T05:58:10.641Z,19.4
2016-10-04T05:58:36.282Z,19.36
2016-10-04T05:59:01.829Z,19.32
2016-10-04T05:59:27.416Z,19.43
2016-10-04T05:59:52.981Z,19.35
2016-10-04T06:00:18.558Z,19.4
2016-10-04T06:01:22.266Z,19.4
2016-10-04T06:01:47.833Z,19.38
2016-10-04T06:02:13.388Z,19.4
2016-10-04T06:02:38.968Z,19.35
2016-10-04T06:03:04.552Z,19.39
2016-10-04T06:03:30.112Z,19.4
2016-10-04T06:03:55.658Z,19.42
2016-10-04T06:04:21.222Z,19.36
2016-10-04T06:04:46.779Z,19.4
2016-10-04T06:05:12.316Z,19.4
2016-10-04T06:05:37.916Z,19.32
2016-10-04T06:06:03.482Z,19.35
2016-10-04T06:06:29.037Z,19.36
2016-10-04T06:06:54.764Z,19.36
2016-10-04T06:07:20.328Z,19.43
2016-10-04T06:07:45.951Z,19.39
2016-10-04T06:08:11.590Z,19.4
2016-10-04T06:08:37.151Z,19.36
2016-10-04T06:09:02.745Z,19.39
2016-10-04T06:09:28.387Z,19.42
2016-10-04T06:09:53.931Z,19.39
2016-10-04T06:10:19.487Z,19.36
2016-10-04T06:10:45.137Z,19.39
2016-10-04T06:11:10.730Z,19.36
2016-10-04T06:11:36.311Z,19.38
2016-10-04T06:12:01.857Z,19.46
2016-10-04T06:12:27.474Z,19.36
2016-10-04T06:12:53.099Z,19.4
2016-10-04T06:13:18.695Z,19.42
2016-10-04T06:13:44.270Z,19.38
2016-10-04T06:14:09.814Z,19.42
2016-10-04T06:14:35.359Z,19.43
2016-10-04T06:15:00.952Z,19.36
2016-10-04T06:15:26.533Z,19.39
2016-10-04T06:15:52.206Z,19.46
2016-10-04T06:16:18.202Z,19.36
2016-10-04T06:16:43.824Z,19.42
2016-10-04T06:17:09.489Z,19.4
2016-10-04T06:17:35.062Z,19.46
2016-10-04T06:18:01.257Z,19.39
2016-10-04T06:18:26.954Z,19.47
2016-10-04T06:18:52.871Z,19.39
2016-10-04T06:19:18.445Z,19.33
2016-10-04T06:19:44.056Z,19.46
2016-10-04T06:20:09.639Z,19.33
2016-10-04T06:20:35.221Z,19.35
2016-10-04T06:21:00.797Z,19.46
2016-10-04T06:21:26.349Z,19.35
2016-10-04T06:21:51.927Z,19.4
2016-10-04T06:22:17.607Z,19.43
2016-10-04T06:22:43.184Z,19.39
2016-10-04T06:23:08.745Z,19.46
2016-10-04T06:23:34.391Z,19.35
2016-10-04T06:23:59.950Z,19.38
2016-10-04T06:24:25.521Z,19.4
2016-10-04T06:24:51.072Z,19.47
2016-10-04T06:25:16.718Z,19.5
2016-10-04T06:25:42.322Z,19.43
2016-10-04T06:26:08.064Z,19.47
2016-10-04T06:26:33.621Z,19.47
2016-10-04T06:26:59.260Z,19.4
2016-10-04T06:27:24.879Z,19.48
2016-10-04T06:27:50.472Z,19.43
2016-10-04T06:28:16.027Z,19.42
2016-10-04T06:28:41.604Z,19.42
2016-10-04T06:29:07.172Z,19.43
2016-10-04T06:29:32.761Z,19.5
2016-10-04T06:29:58.361Z,19.43
2016-10-04T06:30:23.936Z,19.53
2016-10-04T06:30:49.484Z,19.35
2016-10-04T06:31:15.060Z,19.43
2016-10-04T06:31:40.639Z,19.42
2016-10-04T06:32:06.208Z,19.43
2016-10-04T06:32:31.781Z,19.48
2016-10-04T06:32:57.332Z,19.43
2016-10-04T06:33:22.872Z,19.35
2016-10-04T06:33:48.483Z,19.47
2016-10-04T06:34:14.055Z,19.39
2016-10-04T06:35:22.386Z,19.46
2016-10-04T06:35:47.933Z,19.4
2016-10-04T06:36:35.754Z,19.48
2016-10-04T06:37:01.306Z,19.46
2016-10-04T06:37:26.846Z,19.5
2016-10-04T06:37:52.399Z,19.46
2016-10-04T06:38:18.003Z,19.48
2016-10-04T06:38:43.659Z,19.42
2016-10-04T06:39:09.251Z,19.48
2016-10-04T06:39:34.843Z,19.4
2016-10-04T06:40:00.414Z,19.5
2016-10-04T06:40:25.979Z,19.43
2016-10-04T06:40:51.539Z,19.51
2016-10-04T06:41:17.088Z,19.43
2016-10-04T06:41:42.652Z,19.48
2016-10-04T06:42:08.215Z,19.51
2016-10-04T06:42:33.861Z,19.46
2016-10-04T06:42:59.334Z,19.51
2016-10-04T06:43:24.918Z,19.38
2016-10-04T06:43:50.584Z,19.39
2016-10-04T06:44:16.154Z,19.4
2016-10-04T06:44:41.743Z,19.53
2016-10-04T06:45:07.349Z,19.5
2016-10-04T06:45:32.922Z,19.42
2016-10-04T06:45:58.487Z,19.48
2016-10-04T06:46:24.066Z,19.51
2016-10-04T06:46:49.793Z,19.51
2016-10-04T06:47:15.817Z,19.43
2016-10-04T06:47:41.423Z,19.55
2016-10-04T06:48:07.015Z,19.46
2016-10-04T06:48:32.564Z,19.46
2016-10-04T06:48:58.137Z,19.51
2016-10-04T06:49:23.699Z,19.42
2016-10-04T06:49:49.289Z,19.48
2016-10-04T06:50:14.828Z,19.5
2016-10-04T06:50:40.380Z,19.46
2016-10-04T06:51:06.085Z,19.47
2016-10-04T06:51:31.699Z,19.53
2016-10-04T06:51:57.279Z,19.48
2016-10-04T06:52:22.888Z,19.48
2016-10-04T06:52:48.451Z,19.53
2016-10-04T06:53:14.041Z,19.46
2016-10-04T06:53:39.760Z,19.48
2016-10-04T06:54:05.365Z,19.46
2016-10-04T06:54:30.968Z,19.48
2016-10-04T06:54:56.574Z,19.48
2016-10-04T06:55:22.116Z,19.53
2016-10-04T06:55:47.648Z,19.5
2016-10-04T06:56:13.192Z,19.48
2016-10-04T06:56:38.749Z,19.48
2016-10-04T06:57:04.298Z,19.53
2016-10-04T06:57:29.852Z,19.54
2016-10-04T06:57:55.485Z,19.51
2016-10-04T06:58:21.027Z,19.46
2016-10-04T06:58:46.571Z,19.51
2016-10-04T06:59:12.116Z,19.47
2016-10-04T06:59:37.660Z,19.53
2016-10-04T07:00:03.250Z,19.5
2016-10-04T07:00:28.800Z,19.48
2016-10-04T07:00:54.350Z,19.54
2016-10-04T07:01:19.891Z,19.46
2016-10-04T07:01:45.487Z,19.5
2016-10-04T07:02:11.051Z,19.58
2016-10-04T07:02:36.600Z,19.51
2016-10-04T07:03:02.139Z,19.48
2016-10-04T07:03:27.682Z,19.54
2016-10-04T07:03:53.206Z,19.5
2016-10-04T07:04:18.754Z,19.53
2016-10-04T07:04:44.289Z,19.51
2016-10-04T07:05:09.850Z,19.55
2016-10-04T07:05:35.408Z,19.53
2016-10-04T07:06:00.964Z,19.57
2016-10-04T07:06:26.506Z,19.51
2016-10-04T07:06:52.131Z,19.58
2016-10-04T07:07:17.709Z,19.5
2016-10-04T07:07:43.237Z,19.53
2016-10-04T07:08:08.780Z,19.53
2016-10-04T07:08:35.004Z,19.51
2016-10-04T07:08:59.896Z,19.54
2016-10-04T07:09:25.496Z,19.47
2016-10-04T07:09:51.075Z,19.53
2016-10-04T07:10:16.653Z,19.51
2016-10-04T07:10:42.294Z,19.58
2016-10-04T07:11:07.880Z,19.6
2016-10-04T07:11:33.438Z,19.53
2016-10-04T07:11:58.993Z,19.54
2016-10-04T07:12:24.699Z,19.53
2016-10-04T07:12:50.297Z,19.53
2016-10-04T07:13:15.875Z,19.54
2016-10-04T07:13:41.497Z,19.53
2016-10-04T07:14:07.064Z,19.6
2016-10-04T07:14:32.619Z,19.54
2016-10-04T07:14:58.166Z,19.63
2016-10-04T07:15:23.737Z,19.6
2016-10-04T07:15:49.299Z,19.53
2016-10-04T07:16:14.868Z,19.5
2016-10-04T07:16:40.426Z,19.57
2016-10-04T07:17:05.989Z,19.55
2016-10-04T07:17:31.682Z,19.57
2016-10-04T07:17:57.261Z,19.57
2016-10-04T07:18:22.831Z,19.6
2016-10-04T07:18:48.376Z,19.6
2016-10-04T07:19:13.992Z,19.66
2016-10-04T07:19:39.567Z,19.61
2016-10-04T07:20:05.180Z,19.63
2016-10-04T07:20:30.773Z,19.65
2016-10-04T07:20:56.342Z,19.61
2016-10-04T07:21:21.897Z,19.58
2016-10-04T07:21:47.470Z,19.66
2016-10-04T07:22:13.027Z,19.58
2016-10-04T07:22:38.601Z,19.61
2016-10-04T07:23:04.178Z,19.6
2016-10-04T07:23:29.770Z,19.61
2016-10-04T07:23:55.329Z,19.6
2016-10-04T07:24:20.899Z,19.69
2016-10-04T07:24:46.470Z,19.65
2016-10-04T07:25:12.040Z,19.61
2016-10-04T07:25:37.618Z,19.63
2016-10-04T07:26:03.210Z,19.68
2016-10-04T07:26:28.770Z,19.61
2016-10-04T07:26:54.346Z,19.57
2016-10-04T07:27:19.907Z,19.72
2016-10-04T07:27:45.468Z,19.66
2016-10-04T07:28:11.021Z,19.66
2016-10-04T07:28:36.596Z,19.66
2016-10-04T07:29:02.173Z,19.6
2016-10-04T07:29:27.736Z,19.65
2016-10-04T07:29:53.368Z,19.68
2016-10-04T07:30:18.948Z,19.65
2016-10-04T07:30:44.499Z,19.66
2016-10-04T07:31:10.067Z,19.66
2016-10-04T07:31:35.640Z,19.63
2016-10-04T07:32:01.215Z,19.63
2016-10-04T07:32:26.769Z,19.65
2016-10-04T07:32:52.329Z,19.66
2016-10-04T07:33:17.911Z,19.68
2016-10-04T07:33:43.476Z,19.63
2016-10-04T07:34:09.057Z,19.51
2016-10-04T07:34:34.613Z,19.68
2016-10-04T07:35:00.228Z,19.73
2016-10-04T07:35:25.794Z,19.61
2016-10-04T07:35:51.388Z,19.66
2016-10-04T07:36:16.959Z,19.66
2016-10-04T07:36:42.513Z,19.73
2016-10-04T07:37:08.086Z,19.75
2016-10-04T07:37:33.725Z,19.6
2016-10-04T07:37:59.292Z,19.66
2016-10-04T07:38:24.934Z,19.69
2016-10-04T07:38:50.517Z,19.55
2016-10-04T07:39:16.090Z,19.7
2016-10-04T07:39:41.661Z,19.65
2016-10-04T07:40:07.369Z,19.7
2016-10-04T07:40:32.999Z,19.75
2016-10-04T07:40:58.513Z,19.65
2016-10-04T07:41:24.065Z,19.66
2016-10-04T07:41:49.622Z,19.63
2016-10-04T07:42:15.213Z,19.7
2016-10-04T07:42:40.779Z,19.68
2016-10-04T07:43:06.407Z,19.66
2016-10-04T07:43:32.049Z,19.72
2016-10-04T07:43:57.606Z,19.66
2016-10-04T07:44:23.147Z,19.68
2016-10-04T07:44:48.703Z,19.65
2016-10-04T07:45:14.267Z,19.69
2016-10-04T07:45:39.926Z,19.69
2016-10-04T07:46:05.499Z,19.68
2016-10-04T07:46:31.101Z,19.7
2016-10-04T07:46:56.721Z,19.65
2016-10-04T07:47:22.282Z,19.61
2016-10-04T07:47:47.844Z,19.66
2016-10-04T07:48:13.524Z,19.7
2016-10-04T07:48:39.087Z,19.69
2016-10-04T07:49:04.652Z,19.69
2016-10-04T07:49:30.229Z,19.66
2016-10-04T07:49:55.820Z,19.65
2016-10-04T07:50:21.413Z,19.66
2016-10-04T07:50:46.975Z,19.6
2016-10-04T07:51:12.543Z,19.7
2016-10-04T07:51:38.091Z,19.66
2016-10-04T07:52:03.671Z,19.69
2016-10-04T07:52:29.249Z,19.72
2016-10-04T07:52:54.803Z,19.7
2016-10-04T07:53:20.365Z,19.69
2016-10-04T07:53:45.942Z,19.68
2016-10-04T07:54:11.516Z,19.78
2016-10-04T07:54:37.083Z,19.72
2016-10-04T07:55:02.642Z,19.76
2016-10-04T07:55:28.267Z,19.76
2016-10-04T07:55:53.840Z,19.73
2016-10-04T07:56:19.380Z,19.78
2016-10-04T07:56:45.119Z,19.75
2016-10-04T07:57:10.674Z,19.76
2016-10-04T07:57:36.245Z,19.75
2016-10-04T07:58:01.840Z,19.72
2016-10-04T07:58:27.456Z,19.75
2016-10-04T07:58:53.012Z,19.73
2016-10-04T07:59:18.600Z,19.73
2016-10-04T08:00:06.698Z,19.76
2016-10-04T08:00:54.521Z,19.7
2016-10-04T08:01:20.131Z,19.83
2016-10-04T08:01:45.682Z,19.79
2016-10-04T08:02:11.325Z,19.84
2016-10-04T08:02:36.923Z,19.8
2016-10-04T08:03:02.479Z,19.76
2016-10-04T08:04:10.834Z,19.75
2016-10-04T08:04:36.414Z,19.76
2016-10-04T08:05:01.990Z,19.8
2016-10-04T08:05:27.554Z,19.84
2016-10-04T08:05:53.123Z,19.8
2016-10-04T08:06:18.804Z,19.75
2016-10-04T08:06:44.388Z,19.79
2016-10-04T08:07:09.969Z,19.78
2016-10-04T08:07:35.609Z,19.8
2016-10-04T08:08:01.182Z,19.83
2016-10-04T08:08:26.788Z,19.78
2016-10-04T08:08:52.366Z,19.78
2016-10-04T08:09:17.982Z,19.83
2016-10-04T08:09:43.526Z,19.87
2016-10-04T08:10:09.189Z,19.83
2016-10-04T08:10:34.748Z,19.79
2016-10-04T08:11:00.300Z,19.83
2016-10-04T08:11:25.941Z,19.79
2016-10-04T08:11:51.479Z,19.87
2016-10-04T08:12:17.014Z,19.88
2016-10-04T08:12:42.556Z,19.87
2016-10-04T08:13:08.115Z,19.83
2016-10-04T08:13:33.647Z,19.8
2016-10-04T08:13:59.291Z,19.83
2016-10-04T08:14:24.840Z,19.9
2016-10-04T08:14:50.397Z,19.88
2016-10-04T08:15:15.975Z,19.91
2016-10-04T08:15:41.519Z,19.9
2016-10-04T08:16:07.127Z,19.87
2016-10-04T08:16:32.769Z,19.78
2016-10-04T08:16:58.302Z,19.79
2016-10-04T08:17:23.848Z,19.8
2016-10-04T08:17:49.527Z,19.76
2016-10-04T08:18:15.114Z,19.83
2016-10-04T08:18:40.661Z,19.8
2016-10-04T08:19:06.316Z,19.83
2016-10-04T08:19:31.854Z,19.83
2016-10-04T08:19:57.383Z,19.87
2016-10-04T08:20:23.127Z,19.88
2016-10-04T08:20:48.729Z,19.86
2016-10-04T08:21:14.259Z,19.87
2016-10-04T08:21:39.827Z,19.79
2016-10-04T08:22:05.532Z,19.88
2016-10-04T08:22:31.131Z,19.93
2016-10-04T08:22:56.709Z,19.84
2016-10-04T08:23:22.267Z,19.9
2016-10-04T08:23:47.943Z,19.91
2016-10-04T08:24:13.498Z,19.93
2016-10-04T08:24:39.050Z,19.87
2016-10-04T08:25:04.609Z,19.91
2016-10-04T08:25:30.174Z,19.86
2016-10-04T08:25:55.746Z,19.9
2016-10-04T08:26:21.327Z,19.91
2016-10-04T08:26:46.905Z,19.94
2016-10-04T08:27:12.469Z,19.93
2016-10-04T08:27:38.095Z,19.93
2016-10-04T08:28:03.671Z,19.95
2016-10-04T08:28:29.321Z,19.93
2016-10-04T08:28:54.939Z,19.91
2016-10-04T08:29:20.526Z,19.91
2016-10-04T08:29:46.155Z,19.97
2016-10-04T08:30:11.726Z,19.94
2016-10-04T08:30:37.299Z,19.9
2016-10-04T08:31:02.991Z,19.91
2016-10-04T08:31:28.573Z,19.97
2016-10-04T08:31:54.133Z,19.98
2016-10-04T08:32:19.690Z,20
2016-10-04T08:32:45.385Z,20
2016-10-04T08:33:10.968Z,19.98
2016-10-04T08:33:36.572Z,20
2016-10-04T08:34:02.148Z,19.98
2016-10-04T08:34:27.712Z,19.9
2016-10-04T08:34:53.347Z,19.97
2016-10-04T08:35:18.916Z,19.98
2016-10-04T08:35:44.546Z,20
2016-10-04T08:36:10.097Z,19.98
2016-10-04T08:36:35.675Z,19.97
2016-10-04T08:37:01.247Z,19.98
2016-10-04T08:37:26.815Z,19.91
2016-10-04T08:37:52.404Z,19.93
2016-10-04T08:38:17.974Z,19.98
2016-10-04T08:38:43.553Z,20
2016-10-04T08:39:09.168Z,20.03
2016-10-04T08:39:34.750Z,19.91